Time;durP1;ratioP1;P1;durP2;ratioP2;P2;SDS_P1;SDS_P2;PMS_P1;PMS_P2;Temp;Humidity;BMP_temperature;BMP_pressure;BME280_temperature;BME280_humidity;BME280_pressure;Samples;Min_cycle;Max_cycle;Signal;HPM_P1;HPM_P2
2022/11/07 00:01:50;;;;;;;3.80;2.27;;;;;;;;;;5060440;28;20182;-69
2022/11/07 00:04:16;;;;;;;3.60;2.60;;;;;;;;;;5078037;28;20182;-70
2022/11/07 00:06:42;;;;;;;4.60;2.80;;;;;;;;;;5078792;28;20185;-70
2022/11/07 00:09:08;;;;;;;5.50;2.97;;;;;;;;;;5079310;28;20646;-70
2022/11/07 00:11:34;;;;;;;4.20;2.43;;;;;;;;;;5056399;28;20209;-72
2022/11/07 00:14:00;;;;;;;4.43;2.87;;;;;;;;;;5073068;28;20185;-70
2022/11/07 00:16:27;;;;;;;4.70;2.70;;;;;;;;;;5073534;28;20648;-71
2022/11/07 00:18:53;;;;;;;5.93;2.47;;;;;;;;;;5055202;28;20219;-70
2022/11/07 00:21:19;;;;;;;3.60;2.53;;;;;;;;;;5054927;28;20202;-70
2022/11/07 00:23:45;;;;;;;6.00;2.73;;;;;;;;;;5072839;28;20228;-70
2022/11/07 00:26:12;;;;;;;4.20;2.17;;;;;;;;;;5074937;28;20232;-72
2022/11/07 00:28:40;;;;;;;7.50;2.87;;;;;;;;;;5076566;28;20189;-69
2022/11/07 00:31:06;;;;;;;3.70;2.60;;;;;;;;;;5076868;28;20284;-70
2022/11/07 00:33:32;;;;;;;4.17;2.70;;;;;;;;;;5076528;28;20626;-70
2022/11/07 00:35:58;;;;;;;8.43;3.33;;;;;;;;;;5076480;28;20303;-70
2022/11/07 00:38:24;;;;;;;6.47;2.87;;;;;;;;;;5076511;28;20177;-70
2022/11/07 00:40:54;;;;;;;4.60;2.53;;;;;;;;;;5076333;28;20603;-70
2022/11/07 00:43:20;;;;;;;2.57;2.30;;;;;;;;;;5076557;28;20591;-70
2022/11/07 00:45:46;;;;;;;5.40;2.90;;;;;;;;;;5058381;28;20239;-69
2022/11/07 00:48:12;;;;;;;3.43;2.37;;;;;;;;;;5076400;28;20174;-70
2022/11/07 00:50:38;;;;;;;2.93;2.37;;;;;;;;;;5076064;28;20205;-70
2022/11/07 00:53:04;;;;;;;6.20;2.80;;;;;;;;;;5076145;28;20248;-70
2022/11/07 00:55:31;;;;;;;7.17;3.10;;;;;;;;;;5058043;28;20272;-70
2022/11/07 00:57:57;;;;;;;7.27;2.97;;;;;;;;;;5058137;28;20288;-70
2022/11/07 01:00:23;;;;;;;4.23;2.77;;;;;;;;;;5076070;28;20637;-70
2022/11/07 01:05:09;;;;;;;7.30;2.60;;;;;;;;;;5075972;28;20256;-71
2022/11/07 01:05:35;;;;;;;6.70;2.90;;;;;;;;;;5075779;28;20186;-70
2022/11/07 01:08:00;;;;;;;5.63;2.70;;;;;;;;;;5057919;28;20657;-72
2022/11/07 01:10:26;;;;;;;4.93;2.50;;;;;;;;;;5057836;28;20630;-70
2022/11/07 01:12:52;;;;;;;5.87;2.33;;;;;;;;;;5076092;28;20169;-70
2022/11/07 01:15:18;;;;;;;5.27;2.47;;;;;;;;;;5075731;28;20304;-70
2022/11/07 01:17:44;;;;;;;8.80;2.80;;;;;;;;;;5057876;28;20174;-70
2022/11/07 01:20:10;;;;;;;6.33;2.47;;;;;;;;;;5075622;28;20212;-70
2022/11/07 01:22:36;;;;;;;5.83;2.77;;;;;;;;;;5075570;28;20178;-70
2022/11/07 01:25:02;;;;;;;6.93;2.60;;;;;;;;;;5057602;28;20204;-70
2022/11/07 01:27:29;;;;;;;8.93;3.00;;;;;;;;;;5075641;28;20535;-70
2022/11/07 01:29:54;;;;;;;7.13;2.87;;;;;;;;;;5075392;28;20217;-70
2022/11/07 01:32:20;;;;;;;10.90;3.83;;;;;;;;;;5057424;28;20254;-70
2022/11/07 01:34:46;;;;;;;10.97;4.80;;;;;;;;;;5057556;28;20182;-70
2022/11/07 01:37:12;;;;;;;13.40;5.27;;;;;;;;;;5075486;28;20180;-71
2022/11/07 01:39:38;;;;;;;8.30;4.27;;;;;;;;;;5057148;28;20194;-70
2022/11/07 01:42:04;;;;;;;8.43;4.03;;;;;;;;;;5075160;28;20256;-70
2022/11/07 01:44:39;;;;;;;8.00;3.60;;;;;;;;;;5075172;28;20182;-71
2022/11/07 01:47:06;;;;;;;9.33;3.47;;;;;;;;;;5075155;28;20181;-71
2022/11/07 01:49:34;;;;;;;6.63;3.40;;;;;;;;;;5056976;28;20297;-70
2022/11/07 01:52:05;;;;;;;9.73;3.67;;;;;;;;;;5075016;28;20231;-70
2022/11/07 01:54:35;;;;;;;9.60;3.43;;;;;;;;;;5057018;28;20182;-70
2022/11/07 01:57:08;;;;;;;5.73;2.90;;;;;;;;;;5056853;28;20669;-70
2022/11/07 01:59:36;;;;;;;7.37;3.37;;;;;;;;;;5056829;28;20267;-70
2022/11/07 02:02:03;;;;;;;8.27;3.23;;;;;;;;;;5074824;28;20188;-70
2022/11/07 02:04:30;;;;;;;7.90;3.53;;;;;;;;;;5056813;28;20598;-70
2022/11/07 02:07:10;;;;;;;6.37;3.70;;;;;;;;;;5074657;28;20183;-70
2022/11/07 02:09:36;;;;;;;9.70;3.73;;;;;;;;;;5074462;28;20209;-70
2022/11/07 02:12:02;;;;;;;10.33;3.87;;;;;;;;;;5074548;28;20180;-71
2022/11/07 02:14:29;;;;;;;10.27;3.80;;;;;;;;;;5056750;28;20199;-70
2022/11/07 02:16:55;;;;;;;9.90;4.00;;;;;;;;;;5056689;28;20184;-70
2022/11/07 02:19:35;;;;;;;10.80;3.90;;;;;;;;;;5076585;28;20189;-69
2022/11/07 02:22:01;;;;;;;9.43;4.00;;;;;;;;;;5078825;28;20227;-70
2022/11/07 02:24:32;;;;;;;11.97;4.27;;;;;;;;;;5078946;28;20178;-70
2022/11/07 02:26:59;;;;;;;14.87;5.27;;;;;;;;;;5079108;28;20196;-71
2022/11/07 02:29:26;;;;;;;8.03;4.43;;;;;;;;;;5074994;28;20209;-70
2022/11/07 02:32:02;;;;;;;12.43;5.33;;;;;;;;;;5074573;28;20177;-71
2022/11/07 02:34:28;;;;;;;12.00;5.20;;;;;;;;;;5074303;28;20223;-70
2022/11/07 02:36:54;;;;;;;13.43;4.73;;;;;;;;;;5074507;28;20174;-70
2022/11/07 02:39:20;;;;;;;14.93;4.83;;;;;;;;;;5074174;28;20189;-69
2022/11/07 02:41:46;;;;;;;10.43;4.10;;;;;;;;;;5056343;28;20212;-70
2022/11/07 02:44:12;;;;;;;13.77;4.03;;;;;;;;;;5074213;28;20261;-70
2022/11/07 02:46:39;;;;;;;15.70;5.03;;;;;;;;;;5056260;28;20212;-71
2022/11/07 02:49:05;;;;;;;10.27;4.40;;;;;;;;;;5074081;28;20186;-70
2022/11/07 02:51:31;;;;;;;12.53;4.10;;;;;;;;;;5056244;28;20209;-70
2022/11/07 02:53:57;;;;;;;12.30;5.07;;;;;;;;;;5073791;28;20177;-70
2022/11/07 02:56:23;;;;;;;10.93;5.07;;;;;;;;;;5055869;28;20174;-70
2022/11/07 02:58:51;;;;;;;12.83;4.77;;;;;;;;;;5074136;28;20528;-70
2022/11/07 03:01:17;;;;;;;11.63;4.80;;;;;;;;;;5073855;28;20686;-70
2022/11/07 03:03:45;;;;;;;17.70;5.40;;;;;;;;;;5073773;28;20567;-71
2022/11/07 03:06:12;;;;;;;13.90;4.63;;;;;;;;;;5073707;28;20185;-70
2022/11/07 03:08:38;;;;;;;14.53;5.60;;;;;;;;;;5074103;28;20180;-69
2022/11/07 03:11:04;;;;;;;19.20;5.10;;;;;;;;;;5073448;28;20209;-70
2022/11/07 03:13:30;;;;;;;14.63;5.03;;;;;;;;;;5073579;28;20178;-70
2022/11/07 03:15:56;;;;;;;14.03;5.20;;;;;;;;;;5073564;28;20547;-70
2022/11/07 03:18:22;;;;;;;16.03;4.83;;;;;;;;;;5073730;28;20248;-70
2022/11/07 03:20:48;;;;;;;12.83;4.37;;;;;;;;;;5073637;28;20190;-70
2022/11/07 03:23:14;;;;;;;15.57;5.87;;;;;;;;;;5073474;28;20174;-70
2022/11/07 03:25:41;;;;;;;14.43;4.90;;;;;;;;;;5055375;28;20225;-70
2022/11/07 03:28:07;;;;;;;11.70;4.77;;;;;;;;;;5055371;28;20182;-70
2022/11/07 03:30:33;;;;;;;17.87;5.50;;;;;;;;;;5073231;28;20623;-70
2022/11/07 03:32:59;;;;;;;13.80;4.90;;;;;;;;;;5073312;28;20657;-70
2022/11/07 03:35:26;;;;;;;14.97;5.17;;;;;;;;;;5055371;28;20639;-70
2022/11/07 03:37:52;;;;;;;16.30;4.90;;;;;;;;;;5073313;28;20177;-70
2022/11/07 03:40:18;;;;;;;13.43;4.93;;;;;;;;;;5055143;28;20219;-70
2022/11/07 03:42:44;;;;;;;17.27;5.60;;;;;;;;;;5073269;28;20185;-71
2022/11/07 03:45:11;;;;;;;14.70;5.47;;;;;;;;;;5073160;28;20265;-70
2022/11/07 03:47:39;;;;;;;14.07;4.67;;;;;;;;;;5055256;28;20228;-70
2022/11/07 03:50:05;;;;;;;12.40;4.80;;;;;;;;;;5073262;28;20216;-70
2022/11/07 03:52:31;;;;;;;18.23;5.80;;;;;;;;;;5073242;28;20185;-70
2022/11/07 03:54:57;;;;;;;16.97;5.00;;;;;;;;;;5073211;28;20173;-70
2022/11/07 03:57:23;;;;;;;11.77;4.57;;;;;;;;;;5055321;28;20188;-69
2022/11/07 03:59:49;;;;;;;13.40;4.70;;;;;;;;;;5072927;28;20200;-70
2022/11/07 04:02:15;;;;;;;17.23;4.53;;;;;;;;;;5076688;28;20185;-70
2022/11/07 04:04:41;;;;;;;12.47;4.73;;;;;;;;;;5077093;28;20616;-70
2022/11/07 04:07:07;;;;;;;14.13;4.27;;;;;;;;;;5059023;28;20182;-70
2022/11/07 04:09:33;;;;;;;12.27;4.67;;;;;;;;;;5076893;28;20205;-70
2022/11/07 04:17:29;;;;;;;15.13;4.53;;;;;;;;;;5077180;28;20169;-70
2022/11/07 04:19:55;;;;;;;14.50;5.17;;;;;;;;;;5076668;28;20658;-70
2022/11/07 04:22:22;;;;;;;14.13;5.30;;;;;;;;;;5058695;28;20186;-70
2022/11/07 04:24:48;;;;;;;18.13;5.70;;;;;;;;;;5076659;28;20227;-70
2022/11/07 04:30:17;;;;;;;9.47;3.80;;;;;;;;;;5077066;28;20228;-70
2022/11/07 04:32:43;;;;;;;13.50;4.63;;;;;;;;;;5076764;28;20614;-70
2022/11/07 04:35:09;;;;;;;15.87;4.37;;;;;;;;;;5059096;28;20177;-70
2022/11/07 04:37:35;;;;;;;12.73;3.90;;;;;;;;;;5079716;28;20196;-70
2022/11/07 04:40:01;;;;;;;12.97;3.87;;;;;;;;;;5060991;28;20685;-70
2022/11/07 04:42:27;;;;;;;15.57;4.40;;;;;;;;;;5079910;28;20172;-70
2022/11/07 04:44:53;;;;;;;13.70;3.57;;;;;;;;;;5058565;28;20178;-71
2022/11/07 04:47:19;;;;;;;13.77;4.53;;;;;;;;;;5076806;28;20729;-70
2022/11/07 04:49:45;;;;;;;10.53;3.00;;;;;;;;;;5058036;28;20712;-70
2022/11/07 04:52:11;;;;;;;9.63;3.47;;;;;;;;;;5058195;28;20268;-70
2022/11/07 04:54:37;;;;;;;9.80;2.70;;;;;;;;;;5058114;28;20182;-70
2022/11/07 04:57:03;;;;;;;7.70;3.20;;;;;;;;;;5076348;28;20169;-70
2022/11/07 04:59:29;;;;;;;10.20;3.00;;;;;;;;;;5075801;28;20182;-69
2022/11/07 05:01:55;;;;;;;10.33;3.20;;;;;;;;;;5076193;28;20217;-70
2022/11/07 05:04:21;;;;;;;10.10;3.20;;;;;;;;;;5075951;28;20177;-70
2022/11/07 05:06:46;;;;;;;13.93;3.90;;;;;;;;;;5075901;28;20181;-70
2022/11/07 05:09:15;;;;;;;11.67;3.47;;;;;;;;;;5057791;28;20193;-70
2022/11/07 05:11:41;;;;;;;12.30;3.57;;;;;;;;;;5075260;28;20194;-70
2022/11/07 05:14:07;;;;;;;12.00;3.87;;;;;;;;;;5075906;28;20181;-70
2022/11/07 05:16:33;;;;;;;13.23;3.47;;;;;;;;;;5075650;28;20636;-70
2022/11/07 05:18:59;;;;;;;8.50;3.13;;;;;;;;;;5057660;28;20238;-70
2022/11/07 05:21:25;;;;;;;14.73;3.73;;;;;;;;;;5057612;28;20573;-70
2022/11/07 05:23:51;;;;;;;8.50;3.37;;;;;;;;;;5057605;28;20185;-70
2022/11/07 05:26:17;;;;;;;10.70;3.30;;;;;;;;;;5057590;28;20647;-70
2022/11/07 05:28:43;;;;;;;12.13;3.80;;;;;;;;;;5075789;28;20641;-70
2022/11/07 05:31:14;;;;;;;9.73;3.40;;;;;;;;;;5057420;28;20666;-70
2022/11/07 05:33:39;;;;;;;12.23;4.00;;;;;;;;;;5075678;28;20166;-71
2022/11/07 05:36:09;;;;;;;11.23;3.60;;;;;;;;;;5057386;28;20178;-70
2022/11/07 05:38:35;;;;;;;13.17;3.67;;;;;;;;;;5075191;28;20174;-69
2022/11/07 05:41:04;;;;;;;10.00;3.50;;;;;;;;;;5075167;28;20217;-70
2022/11/07 05:43:30;;;;;;;10.20;3.37;;;;;;;;;;5075175;28;20681;-70
2022/11/07 05:45:59;;;;;;;9.30;2.97;;;;;;;;;;5075304;28;20320;-69
2022/11/07 05:48:25;;;;;;;15.10;3.53;;;;;;;;;;5057131;28;20556;-69
2022/11/07 05:50:51;;;;;;;10.17;3.13;;;;;;;;;;5056899;28;20595;-69
2022/11/07 05:53:19;;;;;;;8.70;3.17;;;;;;;;;;5075378;28;20185;-69
2022/11/07 05:55:45;;;;;;;8.33;2.90;;;;;;;;;;5075232;28;20166;-69
2022/11/07 05:58:12;;;;;;;11.90;3.67;;;;;;;;;;5075142;28;20691;-69
2022/11/07 06:00:38;;;;;;;5.90;2.70;;;;;;;;;;5056900;28;20202;-69
2022/11/07 06:03:04;;;;;;;10.73;3.43;;;;;;;;;;5075352;28;20200;-70
2022/11/07 06:05:30;;;;;;;10.63;2.90;;;;;;;;;;5056844;28;20635;-69
2022/11/07 06:07:56;;;;;;;10.47;3.27;;;;;;;;;;5056879;28;20641;-69
2022/11/07 06:10:23;;;;;;;8.33;3.20;;;;;;;;;;5074502;28;20229;-70
2022/11/07 06:13:09;;;;;;;15.03;3.53;;;;;;;;;;5074680;28;20638;-69
2022/11/07 06:15:36;;;;;;;12.80;3.37;;;;;;;;;;5056721;28;20170;-70
2022/11/07 06:18:03;;;;;;;9.33;3.33;;;;;;;;;;5056613;28;20177;-70
2022/11/07 06:20:29;;;;;;;7.83;3.57;;;;;;;;;;5056485;28;20198;-69
2022/11/07 06:22:59;;;;;;;10.40;3.53;;;;;;;;;;5073895;28;20650;-70
2022/11/07 06:25:25;;;;;;;9.47;3.60;;;;;;;;;;5074574;28;20206;-69
2022/11/07 06:27:51;;;;;;;14.10;4.53;;;;;;;;;;5056502;28;20634;-70
2022/11/07 06:30:17;;;;;;;11.23;3.77;;;;;;;;;;5056471;28;20214;-70
2022/11/07 06:32:44;;;;;;;13.27;5.00;;;;;;;;;;5074528;28;20177;-70
2022/11/07 06:35:10;;;;;;;15.07;4.40;;;;;;;;;;5074854;28;20174;-70
2022/11/07 06:37:36;;;;;;;15.13;4.10;;;;;;;;;;5074450;28;20178;-70
2022/11/07 06:40:02;;;;;;;12.10;4.10;;;;;;;;;;5056677;28;20224;-69
2022/11/07 06:42:28;;;;;;;18.40;4.53;;;;;;;;;;5060123;28;20646;-70
2022/11/07 06:44:54;;;;;;;9.63;3.77;;;;;;;;;;5080033;28;20185;-70
2022/11/07 06:47:20;;;;;;;15.33;4.47;;;;;;;;;;5062891;28;20209;-70
2022/11/07 06:49:46;;;;;;;11.97;4.53;;;;;;;;;;5062771;28;20224;-70
2022/11/07 06:52:12;;;;;;;14.33;4.40;;;;;;;;;;5062187;28;20204;-70
2022/11/07 06:54:38;;;;;;;13.50;4.67;;;;;;;;;;5073899;28;20252;-69
2022/11/07 06:57:04;;;;;;;19.13;4.20;;;;;;;;;;5073816;28;20210;-69
2022/11/07 06:59:30;;;;;;;15.40;4.20;;;;;;;;;;5073547;28;20189;-70
2022/11/07 07:01:56;;;;;;;12.13;3.50;;;;;;;;;;5055824;28;20180;-70
2022/11/07 07:04:21;;;;;;;14.10;3.73;;;;;;;;;;5055698;28;20186;-70
2022/11/07 07:06:47;;;;;;;10.53;2.90;;;;;;;;;;5082475;22;20304;-65
2022/11/07 07:09:13;;;;;;;9.63;3.07;;;;;;;;;;5073576;28;20593;-66
2022/11/07 07:11:41;;;;;;;15.50;3.43;;;;;;;;;;5074250;28;20178;-66
2022/11/07 07:14:07;;;;;;;12.00;3.23;;;;;;;;;;5074062;28;20173;-66
2022/11/07 07:16:33;;;;;;;12.90;3.10;;;;;;;;;;5073357;28;20288;-66
2022/11/07 07:18:59;;;;;;;11.07;3.33;;;;;;;;;;5073805;28;20201;-66
2022/11/07 07:21:25;;;;;;;12.73;3.70;;;;;;;;;;5073734;28;20660;-65
2022/11/07 07:23:51;;;;;;;10.87;3.13;;;;;;;;;;5073488;28;20174;-65
2022/11/07 07:26:17;;;;;;;12.97;3.27;;;;;;;;;;5072273;28;20201;-66
2022/11/07 07:28:43;;;;;;;9.60;2.93;;;;;;;;;;5072332;28;20185;-65
2022/11/07 07:31:12;;;;;;;14.43;3.70;;;;;;;;;;5072223;28;20198;-66
2022/11/07 07:33:39;;;;;;;12.70;3.57;;;;;;;;;;5073560;28;20201;-66
2022/11/07 07:36:05;;;;;;;12.20;3.73;;;;;;;;;;5071847;28;20225;-66
2022/11/07 07:38:31;;;;;;;9.77;2.87;;;;;;;;;;5073523;28;20545;-65
2022/11/07 07:40:58;;;;;;;8.13;3.47;;;;;;;;;;5073156;28;20659;-66
2022/11/07 07:43:24;;;;;;;13.07;3.57;;;;;;;;;;5073486;28;20257;-66
2022/11/07 07:45:50;;;;;;;11.90;3.10;;;;;;;;;;5073119;28;20244;-66
2022/11/07 07:48:16;;;;;;;9.60;3.40;;;;;;;;;;5073143;28;20180;-66
2022/11/07 07:50:42;;;;;;;10.03;2.77;;;;;;;;;;5073258;28;20233;-66
2022/11/07 07:53:08;;;;;;;15.65;4.00;;;;;;;;;;5072266;28;20380;-65
2022/11/07 07:55:34;;;;;;;12.10;3.30;;;;;;;;;;5072942;28;20238;-66
2022/11/07 07:58:00;;;;;;;9.93;2.80;;;;;;;;;;5073030;28;20227;-66
2022/11/07 08:00:26;;;;;;;9.57;2.83;;;;;;;;;;5071672;28;20189;-65
2022/11/07 08:02:59;;;;;;;15.00;3.60;;;;;;;;;;5073032;28;20174;-66
2022/11/07 08:05:25;;;;;;;9.77;3.10;;;;;;;;;;5071412;28;20299;-66
2022/11/07 08:07:51;;;;;;;10.77;3.37;;;;;;;;;;5073419;28;20262;-66
2022/11/07 08:10:18;;;;;;;10.20;2.50;;;;;;;;;;5072798;28;20346;-65
2022/11/07 08:12:45;;;;;;;10.60;2.87;;;;;;;;;;5072709;28;20173;-64
2022/11/07 08:15:11;;;;;;;15.10;3.90;;;;;;;;;;5072688;28;20178;-65
2022/11/07 08:17:38;;;;;;;9.90;3.30;;;;;;;;;;5072784;28;20170;-65
2022/11/07 08:20:04;;;;;;;13.17;3.30;;;;;;;;;;5072857;28;20189;-66
2022/11/07 08:22:30;;;;;;;8.30;2.20;;;;;;;;;;5072984;28;20185;-65
2022/11/07 08:24:56;;;;;;;11.90;2.80;;;;;;;;;;5071485;28;20528;-65
2022/11/07 08:27:22;;;;;;;11.70;3.20;;;;;;;;;;5071448;28;20193;-66
2022/11/07 08:29:48;;;;;;;10.57;3.30;;;;;;;;;;5071310;28;20204;-66
2022/11/07 08:32:14;;;;;;;8.67;3.03;;;;;;;;;;5073259;28;20177;-66
2022/11/07 08:34:40;;;;;;;10.10;2.37;;;;;;;;;;5072580;28;20256;-66
2022/11/07 08:37:06;;;;;;;11.50;3.23;;;;;;;;;;5072799;28;20221;-66
2022/11/07 08:39:32;;;;;;;8.33;2.43;;;;;;;;;;5072547;28;20228;-65
2022/11/07 08:41:58;;;;;;;9.23;2.77;;;;;;;;;;5072638;28;20173;-66
2022/11/07 08:44:24;;;;;;;11.33;2.80;;;;;;;;;;5071259;28;20535;-66
2022/11/07 08:46:50;;;;;;;11.30;2.93;;;;;;;;;;5073889;28;20678;-66
2022/11/07 08:49:15;;;;;;;10.83;3.20;;;;;;;;;;5076187;28;20677;-65
2022/11/07 08:51:41;;;;;;;10.87;3.07;;;;;;;;;;5075070;28;20166;-66
2022/11/07 08:54:07;;;;;;;7.73;2.43;;;;;;;;;;5076151;28;20544;-64
2022/11/07 08:56:34;;;;;;;13.43;3.50;;;;;;;;;;5074691;28;20208;-66
2022/11/07 08:59:00;;;;;;;8.73;2.83;;;;;;;;;;5076013;28;20182;-65
2022/11/07 09:01:26;;;;;;;10.80;2.77;;;;;;;;;;5074745;28;20188;-64
2022/11/07 09:03:52;;;;;;;6.73;2.40;;;;;;;;;;5075918;28;20654;-64
2022/11/07 09:06:18;;;;;;;14.20;3.47;;;;;;;;;;5075801;28;20251;-65
2022/11/07 09:08:44;;;;;;;10.70;2.80;;;;;;;;;;5075929;28;20182;-65
2022/11/07 09:11:10;;;;;;;13.50;3.00;;;;;;;;;;5074497;28;20201;-64
2022/11/07 09:13:36;;;;;;;13.03;3.33;;;;;;;;;;5074568;28;20737;-65
2022/11/07 09:16:03;;;;;;;8.47;2.47;;;;;;;;;;5075584;28;20670;-65
2022/11/07 09:18:29;;;;;;;8.57;2.90;;;;;;;;;;5076248;28;20627;-65
2022/11/07 09:20:56;;;;;;;8.63;2.70;;;;;;;;;;5075710;28;20181;-65
2022/11/07 09:23:22;;;;;;;8.77;2.93;;;;;;;;;;5075598;28;20209;-64
2022/11/07 09:25:48;;;;;;;10.43;3.33;;;;;;;;;;5074283;28;20236;-65
2022/11/07 09:28:15;;;;;;;8.07;2.87;;;;;;;;;;5075989;28;20543;-65
2022/11/07 09:30:41;;;;;;;8.43;3.23;;;;;;;;;;5074071;28;20206;-64
2022/11/07 09:33:07;;;;;;;9.70;3.20;;;;;;;;;;5074162;28;20174;-65
2022/11/07 09:35:33;;;;;;;10.87;3.00;;;;;;;;;;5074247;28;20198;-64
2022/11/07 09:37:59;;;;;;;14.43;3.80;;;;;;;;;;5074128;28;20211;-64
2022/11/07 09:40:28;;;;;;;12.27;4.10;;;;;;;;;;5074248;28;20485;-65
2022/11/07 09:43:12;;;;;;;10.17;3.07;;;;;;;;;;5075239;28;20553;-65
2022/11/07 09:45:44;;;;;;;7.40;2.57;;;;;;;;;;5075297;28;20209;-65
2022/11/07 09:48:16;;;;;;;6.37;2.63;;;;;;;;;;5075409;28;20168;-65
2022/11/07 09:50:43;;;;;;;10.73;2.70;;;;;;;;;;5075211;28;20241;-63
2022/11/07 09:53:24;;;;;;;13.70;4.67;;;;;;;;;;5074983;28;20174;-64
2022/11/07 09:55:58;;;;;;;12.03;2.67;;;;;;;;;;5074940;28;20197;-64
2022/11/07 09:58:24;;;;;;;9.53;2.97;;;;;;;;;;5072480;28;20267;-65
2022/11/07 10:00:50;;;;;;;12.30;2.87;;;;;;;;;;5074890;28;20202;-65
2022/11/07 10:03:17;;;;;;;13.43;2.93;;;;;;;;;;5073600;28;20206;-65
2022/11/07 10:05:43;;;;;;;7.43;2.93;;;;;;;;;;5074598;28;20611;-65
2022/11/07 10:08:11;;;;;;;11.53;3.40;;;;;;;;;;5073430;28;20170;-65
2022/11/07 10:10:43;;;;;;;12.30;3.27;;;;;;;;;;5074566;28;20678;-65
2022/11/07 10:13:28;;;;;;;10.50;2.40;;;;;;;;;;5074726;28;20567;-64
2022/11/07 10:16:10;;;;;;;11.27;3.07;;;;;;;;;;5074489;28;20646;-65
2022/11/07 10:18:41;;;;;;;11.25;3.13;;;;;;;;;;5073830;28;20374;-67
2022/11/07 10:21:17;;;;;;;10.83;3.00;;;;;;;;;;5073144;28;20182;-65
2022/11/07 10:23:53;;;;;;;11.17;3.30;;;;;;;;;;5074318;28;20201;-65
2022/11/07 10:26:21;;;;;;;8.07;2.77;;;;;;;;;;5074394;28;20677;-67
2022/11/07 10:28:49;;;;;;;10.87;2.97;;;;;;;;;;5074322;28;20611;-65
2022/11/07 10:31:15;;;;;;;9.63;2.97;;;;;;;;;;5074151;28;20202;-65
2022/11/07 10:33:56;;;;;;;14.73;3.60;;;;;;;;;;5074207;28;20668;-65
2022/11/07 10:36:26;;;;;;;12.63;3.43;;;;;;;;;;5073361;28;20678;-65
2022/11/07 10:38:52;;;;;;;9.70;3.10;;;;;;;;;;5074210;28;20170;-64
2022/11/07 10:41:20;;;;;;;13.90;2.63;;;;;;;;;;5072864;28;20250;-65
2022/11/07 10:43:48;;;;;;;11.53;3.27;;;;;;;;;;5073969;28;20177;-65
2022/11/07 10:46:40;;;;;;;11.83;3.63;;;;;;;;;;5073975;28;20208;-65
2022/11/07 10:49:21;;;;;;;10.10;3.30;;;;;;;;;;5072133;28;20255;-65
2022/11/07 10:51:48;;;;;;;8.20;2.97;;;;;;;;;;5073837;28;20185;-65
2022/11/07 10:54:26;;;;;;;11.07;3.00;;;;;;;;;;5074033;28;20180;-64
2022/11/07 10:57:03;;;;;;;9.80;2.97;;;;;;;;;;5072532;28;20288;-64
2022/11/07 10:59:30;;;;;;;9.50;2.93;;;;;;;;;;5073970;28;20184;-64
2022/11/07 11:01:57;;;;;;;7.70;3.00;;;;;;;;;;5074201;28;20694;-64
2022/11/07 11:04:25;;;;;;;11.07;3.47;;;;;;;;;;5073754;28;20448;-64
2022/11/07 11:06:58;;;;;;;12.03;3.23;;;;;;;;;;5072464;28;20205;-65
2022/11/07 11:09:28;;;;;;;5.93;2.80;;;;;;;;;;5072628;28;20564;-63
2022/11/07 11:11:54;;;;;;;11.50;3.63;;;;;;;;;;5078769;28;20252;-64
2022/11/07 11:14:20;;;;;;;12.40;3.47;;;;;;;;;;5074163;28;20201;-64
2022/11/07 11:16:48;;;;;;;8.80;3.00;;;;;;;;;;5073803;28;20197;-65
2022/11/07 11:19:22;;;;;;;10.73;3.30;;;;;;;;;;5073659;28;20212;-65
2022/11/07 11:21:50;;;;;;;10.93;3.30;;;;;;;;;;5073684;28;20559;-65
2022/11/07 11:24:30;;;;;;;11.10;3.23;;;;;;;;;;5073479;28;20192;-64
2022/11/07 11:27:01;;;;;;;14.13;3.23;;;;;;;;;;5073514;28;20194;-64
2022/11/07 11:29:38;;;;;;;12.50;2.97;;;;;;;;;;5071959;28;20192;-64
2022/11/07 11:32:04;;;;;;;10.53;3.37;;;;;;;;;;5071939;28;20169;-64
2022/11/07 11:34:37;;;;;;;9.97;3.67;;;;;;;;;;5071790;28;20553;-65
2022/11/07 11:37:06;;;;;;;10.57;3.63;;;;;;;;;;5073156;28;20216;-65
2022/11/07 11:39:45;;;;;;;11.07;2.80;;;;;;;;;;5071872;28;20206;-65
2022/11/07 11:42:18;;;;;;;11.73;3.63;;;;;;;;;;5072073;28;20260;-67
2022/11/07 11:44:45;;;;;;;14.37;3.73;;;;;;;;;;5073551;28;20212;-64
2022/11/07 11:47:18;;;;;;;12.27;3.07;;;;;;;;;;5073559;28;20190;-66
2022/11/07 11:49:50;;;;;;;12.53;3.30;;;;;;;;;;5073324;28;20627;-64
2022/11/07 11:52:21;;;;;;;11.23;2.93;;;;;;;;;;5072028;28;20564;-65
2022/11/07 11:54:50;;;;;;;13.47;3.17;;;;;;;;;;5072119;28;20173;-64
2022/11/07 11:57:34;;;;;;;13.13;3.10;;;;;;;;;;5073085;28;20185;-64
2022/11/07 12:00:20;;;;;;;17.40;4.37;;;;;;;;;;5072983;28;20215;-64
2022/11/07 12:02:46;;;;;;;10.00;2.93;;;;;;;;;;5072805;28;20588;-64
2022/11/07 12:05:30;;;;;;;12.97;3.63;;;;;;;;;;5071287;28;20662;-65
2022/11/07 12:08:29;;;;;;;8.37;3.00;;;;;;;;;;5073068;28;20177;-64
2022/11/07 12:10:54;;;;;;;11.97;3.20;;;;;;;;;;5050181;28;20236;-64
2022/11/07 12:13:43;;;;;;;13.57;3.90;;;;;;;;;;5073084;28;20182;-64
2022/11/07 12:16:26;;;;;;;14.80;3.33;;;;;;;;;;5072953;28;20749;-64
2022/11/07 12:18:56;;;;;;;10.23;3.00;;;;;;;;;;5072940;28;20177;-64
2022/11/07 12:21:22;;;;;;;12.67;3.17;;;;;;;;;;5072802;28;20190;-65
2022/11/07 12:24:03;;;;;;;13.63;3.33;;;;;;;;;;5075831;28;20230;-63
2022/11/07 12:26:33;;;;;;;10.40;3.47;;;;;;;;;;5076968;28;20668;-65
2022/11/07 12:28:59;;;;;;;14.80;3.97;;;;;;;;;;5077698;28;20220;-64
2022/11/07 12:31:36;;;;;;;11.13;2.93;;;;;;;;;;5076933;28;20681;-65
2022/11/07 12:34:19;;;;;;;8.93;2.90;;;;;;;;;;5075463;28;20177;-65
2022/11/07 12:36:49;;;;;;;17.23;4.03;;;;;;;;;;5076812;28;20197;-63
2022/11/07 12:39:42;;;;;;;8.93;3.33;;;;;;;;;;5076634;28;20632;-65
2022/11/07 12:42:11;;;;;;;9.63;3.73;;;;;;;;;;5076868;28;20165;-65
2022/11/07 12:44:49;;;;;;;10.57;3.30;;;;;;;;;;5076947;28;20178;-64
2022/11/07 12:47:25;;;;;;;11.77;3.37;;;;;;;;;;5076482;28;20618;-64
2022/11/07 12:49:51;;;;;;;12.37;3.10;;;;;;;;;;5076927;28;20223;-64
2022/11/07 12:52:25;;;;;;;9.17;3.10;;;;;;;;;;5075201;28;20181;-64
2022/11/07 12:54:53;;;;;;;8.47;2.97;;;;;;;;;;5076528;28;20163;-64
2022/11/07 12:57:28;;;;;;;6.70;2.93;;;;;;;;;;5076055;28;20198;-64
2022/11/07 12:59:57;;;;;;;11.80;2.80;;;;;;;;;;5076043;28;20184;-64
2022/11/07 13:02:23;;;;;;;9.13;2.50;;;;;;;;;;5075872;28;20606;-64
2022/11/07 13:04:53;;;;;;;7.07;2.60;;;;;;;;;;5076131;28;20206;-64
2022/11/07 13:07:28;;;;;;;10.07;2.97;;;;;;;;;;5075664;28;20245;-64
2022/11/07 13:10:01;;;;;;;9.30;3.00;;;;;;;;;;5075082;28;20197;-64
2022/11/07 13:12:30;;;;;;;7.77;2.73;;;;;;;;;;5075502;28;20652;-64
2022/11/07 13:14:56;;;;;;;11.37;2.87;;;;;;;;;;5075667;28;20548;-64
2022/11/07 13:17:23;;;;;;;11.63;2.90;;;;;;;;;;5075980;28;20181;-63
2022/11/07 13:20:08;;;;;;;8.23;3.00;;;;;;;;;;5076171;28;20223;-62
2022/11/07 13:22:38;;;;;;;9.70;2.40;;;;;;;;;;5074147;28;20189;-62
2022/11/07 13:25:16;;;;;;;9.90;2.73;;;;;;;;;;5075545;28;20649;-64
2022/11/07 13:27:43;;;;;;;7.00;2.57;;;;;;;;;;5075411;28;20173;-64
2022/11/07 13:30:19;;;;;;;8.50;2.60;;;;;;;;;;5075276;28;20206;-65
2022/11/07 13:32:50;;;;;;;19.97;8.53;;;;;;;;;;5073684;28;20169;-66
2022/11/07 13:35:29;;;;;;;10.87;3.77;;;;;;;;;;5075743;28;20169;-65
2022/11/07 13:38:00;;;;;;;4.93;2.53;;;;;;;;;;5075034;28;20257;-65
2022/11/07 13:40:37;;;;;;;9.10;2.90;;;;;;;;;;5074963;28;20189;-65
2022/11/07 13:43:11;;;;;;;6.67;2.20;;;;;;;;;;5074929;28;20186;-65
2022/11/07 13:45:54;;;;;;;7.13;2.50;;;;;;;;;;5075006;28;20574;-65
2022/11/07 13:48:32;;;;;;;6.90;2.70;;;;;;;;;;5075292;28;20214;-65
2022/11/07 13:51:05;;;;;;;8.83;2.60;;;;;;;;;;5073672;28;20208;-65
2022/11/07 13:53:40;;;;;;;9.17;2.80;;;;;;;;;;5075015;28;20208;-65
2022/11/07 13:56:14;;;;;;;7.70;2.50;;;;;;;;;;5074933;28;20197;-65
2022/11/07 13:58:41;;;;;;;11.30;2.90;;;;;;;;;;5073949;28;20197;-66
2022/11/07 14:01:11;;;;;;;9.13;2.80;;;;;;;;;;5073354;28;20225;-66
2022/11/07 14:03:37;;;;;;;10.27;3.00;;;;;;;;;;5074974;28;20231;-66
2022/11/07 14:06:03;;;;;;;11.77;2.83;;;;;;;;;;5073108;28;20308;-65
2022/11/07 14:08:35;;;;;;;7.80;2.23;;;;;;;;;;5074660;28;20178;-65
2022/11/07 14:11:01;;;;;;;10.13;2.87;;;;;;;;;;5074517;28;20201;-66
2022/11/07 14:13:32;;;;;;;8.37;2.40;;;;;;;;;;5074445;28;20192;-66
2022/11/07 14:15:59;;;;;;;10.60;3.07;;;;;;;;;;5074552;28;20268;-66
2022/11/07 14:18:32;;;;;;;7.80;2.37;;;;;;;;;;5073484;28;20248;-67
2022/11/07 14:20:59;;;;;;;10.90;2.90;;;;;;;;;;5074410;28;20182;-66
2022/11/07 14:23:27;;;;;;;7.37;2.70;;;;;;;;;;5074250;28;20178;-66
2022/11/07 14:25:58;;;;;;;7.53;2.50;;;;;;;;;;5072838;28;20208;-66
2022/11/07 14:28:24;;;;;;;8.17;3.17;;;;;;;;;;5074547;28;20197;-66
2022/11/07 14:30:51;;;;;;;8.47;2.63;;;;;;;;;;5074613;28;20206;-66
2022/11/07 14:33:18;;;;;;;7.63;2.87;;;;;;;;;;5072778;28;20178;-66
2022/11/07 14:35:46;;;;;;;7.50;2.57;;;;;;;;;;5073923;28;20236;-66
2022/11/07 14:38:16;;;;;;;10.00;2.90;;;;;;;;;;5073927;28;20174;-65
2022/11/07 14:40:42;;;;;;;10.93;2.43;;;;;;;;;;5073827;28;20557;-66
2022/11/07 14:43:11;;;;;;;8.30;2.93;;;;;;;;;;5074015;28;20189;-65
2022/11/07 14:45:37;;;;;;;9.77;2.97;;;;;;;;;;5072925;28;20551;-66
2022/11/07 14:48:03;;;;;;;7.90;2.93;;;;;;;;;;5073819;28;20208;-66
2022/11/07 14:50:29;;;;;;;9.80;3.03;;;;;;;;;;5074206;28;20205;-66
2022/11/07 14:53:07;;;;;;;12.27;3.17;;;;;;;;;;5074144;28;20668;-66